sensor_id;sensor_type;location;lat;lon;timestamp;P1;durP1;ratioP1;P2;durP2;ratioP2
65206;SDS011;58477;48.072;11.970;2024-03-02T00:00:54;9.25;;;6.07;;
65206;SDS011;58477;48.072;11.970;2024-03-02T00:03:20;13.07;;;6.00;;
65206;SDS011;58477;48.072;11.970;2024-03-02T00:05:49;17.25;;;6.78;;
65206;SDS011;58477;48.072;11.970;2024-03-02T00:08:19;13.40;;;6.90;;
65206;SDS011;58477;48.072;11.970;2024-03-02T00:13:14;9.93;;;5.75;;
65206;SDS011;58477;48.072;11.970;2024-03-02T00:15:49;12.90;;;7.43;;
65206;SDS011;58477;48.072;11.970;2024-03-02T00:18:21;12.93;;;7.35;;
65206;SDS011;58477;48.072;11.970;2024-03-02T00:20:54;14.27;;;7.32;;
65206;SDS011;58477;48.072;11.970;2024-03-02T00:23:21;13.13;;;7.88;;
65206;SDS011;58477;48.072;11.970;2024-03-02T00:25:51;17.95;;;7.97;;
65206;SDS011;58477;48.072;11.970;2024-03-02T00:28:22;15.70;;;8.52;;
65206;SDS011;58477;48.072;11.970;2024-03-02T00:31:04;14.30;;;7.93;;
65206;SDS011;58477;48.072;11.970;2024-03-02T00:33:37;15.48;;;7.97;;
65206;SDS011;58477;48.072;11.970;2024-03-02T00:36:10;18.70;;;8.80;;
65206;SDS011;58477;48.072;11.970;2024-03-02T00:38:56;13.38;;;8.05;;
65206;SDS011;58477;48.072;11.970;2024-03-02T00:41:31;10.45;;;6.80;;
65206;SDS011;58477;48.072;11.970;2024-03-02T00:44:04;14.68;;;8.05;;
65206;SDS011;58477;48.072;11.970;2024-03-02T00:46:37;13.52;;;7.35;;
65206;SDS011;58477;48.072;11.970;2024-03-02T00:51:35;14.55;;;7.07;;
65206;SDS011;58477;48.072;11.970;2024-03-02T00:54:03;13.02;;;8.48;;
65206;SDS011;58477;48.072;11.970;2024-03-02T00:56:29;11.65;;;7.50;;
65206;SDS011;58477;48.072;11.970;2024-03-02T00:58:56;15.52;;;7.57;;
65206;SDS011;58477;48.072;11.970;2024-03-02T01:01:21;14.25;;;7.93;;
65206;SDS011;58477;48.072;11.970;2024-03-02T01:03:47;15.63;;;7.85;;
65206;SDS011;58477;48.072;11.970;2024-03-02T01:06:14;14.55;;;8.70;;
65206;SDS011;58477;48.072;11.970;2024-03-02T01:08:41;16.42;;;8.70;;
65206;SDS011;58477;48.072;11.970;2024-03-02T01:11:06;17.77;;;10.55;;
65206;SDS011;58477;48.072;11.970;2024-03-02T01:13:32;18.38;;;10.73;;
65206;SDS011;58477;48.072;11.970;2024-03-02T01:15:57;20.02;;;10.63;;
65206;SDS011;58477;48.072;11.970;2024-03-02T01:18:23;22.73;;;11.73;;
65206;SDS011;58477;48.072;11.970;2024-03-02T01:20:49;20.27;;;10.98;;
65206;SDS011;58477;48.072;11.970;2024-03-02T01:23:17;25.95;;;12.02;;
65206;SDS011;58477;48.072;11.970;2024-03-02T01:25:44;23.25;;;11.07;;
65206;SDS011;58477;48.072;11.970;2024-03-02T01:28:10;21.05;;;11.48;;
65206;SDS011;58477;48.072;11.970;2024-03-02T01:30:35;22.00;;;10.90;;
65206;SDS011;58477;48.072;11.970;2024-03-02T01:33:01;22.25;;;11.20;;
65206;SDS011;58477;48.072;11.970;2024-03-02T01:35:27;15.30;;;9.38;;
65206;SDS011;58477;48.072;11.970;2024-03-02T01:37:53;21.00;;;10.45;;
65206;SDS011;58477;48.072;11.970;2024-03-02T01:40:18;18.40;;;10.60;;
65206;SDS011;58477;48.072;11.970;2024-03-02T01:42:44;17.00;;;9.70;;
65206;SDS011;58477;48.072;11.970;2024-03-02T01:45:10;16.88;;;10.45;;
65206;SDS011;58477;48.072;11.970;2024-03-02T01:47:35;17.85;;;10.32;;
65206;SDS011;58477;48.072;11.970;2024-03-02T01:50:01;18.27;;;10.77;;
65206;SDS011;58477;48.072;11.970;2024-03-02T01:52:27;15.65;;;9.48;;
65206;SDS011;58477;48.072;11.970;2024-03-02T01:54:52;20.10;;;11.00;;
65206;SDS011;58477;48.072;11.970;2024-03-02T01:57:18;22.65;;;10.55;;
65206;SDS011;58477;48.072;11.970;2024-03-02T01:59:44;16.77;;;10.00;;
65206;SDS011;58477;48.072;11.970;2024-03-02T02:02:09;19.63;;;10.43;;
65206;SDS011;58477;48.072;11.970;2024-03-02T02:04:35;19.60;;;9.65;;
65206;SDS011;58477;48.072;11.970;2024-03-02T02:07:00;20.15;;;11.27;;
65206;SDS011;58477;48.072;11.970;2024-03-02T02:09:26;22.73;;;10.98;;
65206;SDS011;58477;48.072;11.970;2024-03-02T02:11:51;19.48;;;11.20;;
65206;SDS011;58477;48.072;11.970;2024-03-02T02:14:17;19.30;;;11.13;;
65206;SDS011;58477;48.072;11.970;2024-03-02T02:16:42;19.63;;;10.95;;
65206;SDS011;58477;48.072;11.970;2024-03-02T02:19:08;20.23;;;11.85;;
65206;SDS011;58477;48.072;11.970;2024-03-02T02:21:34;21.13;;;11.88;;
65206;SDS011;58477;48.072;11.970;2024-03-02T02:23:59;16.50;;;10.88;;
65206;SDS011;58477;48.072;11.970;2024-03-02T02:26:26;19.75;;;11.40;;
65206;SDS011;58477;48.072;11.970;2024-03-02T02:28:51;27.08;;;11.45;;
65206;SDS011;58477;48.072;11.970;2024-03-02T02:31:17;23.20;;;12.63;;
65206;SDS011;58477;48.072;11.970;2024-03-02T02:33:42;37.40;;;12.88;;
65206;SDS011;58477;48.072;11.970;2024-03-02T02:36:08;25.40;;;13.77;;
65206;SDS011;58477;48.072;11.970;2024-03-02T02:38:36;31.98;;;11.57;;
65206;SDS011;58477;48.072;11.970;2024-03-02T02:41:03;22.48;;;12.30;;
65206;SDS011;58477;48.072;11.970;2024-03-02T02:43:29;29.70;;;12.07;;
65206;SDS011;58477;48.072;11.970;2024-03-02T02:45:54;33.30;;;11.88;;
65206;SDS011;58477;48.072;11.970;2024-03-02T02:48:20;28.02;;;11.57;;
65206;SDS011;58477;48.072;11.970;2024-03-02T02:50:45;25.63;;;12.20;;
65206;SDS011;58477;48.072;11.970;2024-03-02T02:53:11;51.90;;;12.85;;
65206;SDS011;58477;48.072;11.970;2024-03-02T02:55:36;21.10;;;12.18;;
65206;SDS011;58477;48.072;11.970;2024-03-02T02:58:08;28.35;;;11.98;;
65206;SDS011;58477;48.072;11.970;2024-03-02T03:00:33;36.10;;;11.85;;
65206;SDS011;58477;48.072;11.970;2024-03-02T03:02:59;17.90;;;10.57;;
65206;SDS011;58477;48.072;11.970;2024-03-02T03:05:24;42.22;;;11.57;;
65206;SDS011;58477;48.072;11.970;2024-03-02T03:07:49;37.45;;;12.25;;
65206;SDS011;58477;48.072;11.970;2024-03-02T03:10:15;25.95;;;11.45;;
65206;SDS011;58477;48.072;11.970;2024-03-02T03:12:41;66.50;;;12.85;;
65206;SDS011;58477;48.072;11.970;2024-03-02T03:15:08;25.77;;;12.68;;
65206;SDS011;58477;48.072;11.970;2024-03-02T03:17:34;26.83;;;12.55;;
65206;SDS011;58477;48.072;11.970;2024-03-02T03:20:00;56.70;;;13.00;;
65206;SDS011;58477;48.072;11.970;2024-03-02T03:22:26;52.88;;;13.15;;
65206;SDS011;58477;48.072;11.970;2024-03-02T03:24:52;37.80;;;14.23;;
65206;SDS011;58477;48.072;11.970;2024-03-02T03:27:18;27.17;;;13.50;;
65206;SDS011;58477;48.072;11.970;2024-03-02T03:29:44;47.30;;;16.17;;
65206;SDS011;58477;48.072;11.970;2024-03-02T03:32:10;57.95;;;15.68;;
65206;SDS011;58477;48.072;11.970;2024-03-02T03:34:35;46.35;;;16.45;;
65206;SDS011;58477;48.072;11.970;2024-03-02T03:37:01;38.65;;;15.80;;
65206;SDS011;58477;48.072;11.970;2024-03-02T03:39:27;44.30;;;15.68;;
65206;SDS011;58477;48.072;11.970;2024-03-02T03:41:53;57.50;;;17.30;;
65206;SDS011;58477;48.072;11.970;2024-03-02T03:44:19;49.65;;;19.30;;
65206;SDS011;58477;48.072;11.970;2024-03-02T03:46:44;49.92;;;18.58;;
65206;SDS011;58477;48.072;11.970;2024-03-02T03:49:10;63.08;;;18.80;;
65206;SDS011;58477;48.072;11.970;2024-03-02T03:51:35;42.63;;;19.30;;
65206;SDS011;58477;48.072;11.970;2024-03-02T03:54:01;58.55;;;18.85;;
65206;SDS011;58477;48.072;11.970;2024-03-02T03:56:26;34.78;;;17.10;;
65206;SDS011;58477;48.072;11.970;2024-03-02T03:58:51;28.15;;;15.23;;
65206;SDS011;58477;48.072;11.970;2024-03-02T04:01:17;31.52;;;16.48;;
65206;SDS011;58477;48.072;11.970;2024-03-02T04:03:43;49.70;;;15.40;;
65206;SDS011;58477;48.072;11.970;2024-03-02T04:06:08;33.42;;;14.00;;
65206;SDS011;58477;48.072;11.970;2024-03-02T04:08:34;33.13;;;15.10;;
65206;SDS011;58477;48.072;11.970;2024-03-02T04:10:59;30.83;;;14.52;;
65206;SDS011;58477;48.072;11.970;2024-03-02T04:13:25;25.92;;;14.48;;
65206;SDS011;58477;48.072;11.970;2024-03-02T04:15:50;27.30;;;14.98;;
65206;SDS011;58477;48.072;11.970;2024-03-02T04:18:15;27.52;;;15.25;;
65206;SDS011;58477;48.072;11.970;2024-03-02T04:20:41;37.45;;;20.92;;
65206;SDS011;58477;48.072;11.970;2024-03-02T04:23:07;36.70;;;17.52;;
65206;SDS011;58477;48.072;11.970;2024-03-02T04:25:32;42.50;;;19.05;;
65206;SDS011;58477;48.072;11.970;2024-03-02T04:27:58;37.28;;;19.75;;
65206;SDS011;58477;48.072;11.970;2024-03-02T04:30:23;37.28;;;17.33;;
65206;SDS011;58477;48.072;11.970;2024-03-02T04:32:50;29.38;;;16.38;;
65206;SDS011;58477;48.072;11.970;2024-03-02T04:35:16;27.90;;;14.77;;
65206;SDS011;58477;48.072;11.970;2024-03-02T04:37:41;29.65;;;13.95;;
65206;SDS011;58477;48.072;11.970;2024-03-02T04:40:07;31.67;;;15.88;;
65206;SDS011;58477;48.072;11.970;2024-03-02T04:42:33;42.42;;;21.30;;
65206;SDS011;58477;48.072;11.970;2024-03-02T04:44:59;42.30;;;20.73;;
65206;SDS011;58477;48.072;11.970;2024-03-02T04:47:24;36.42;;;18.52;;
65206;SDS011;58477;48.072;11.970;2024-03-02T04:49:49;40.42;;;21.25;;
65206;SDS011;58477;48.072;11.970;2024-03-02T04:52:15;38.08;;;17.85;;
65206;SDS011;58477;48.072;11.970;2024-03-02T04:54:41;37.38;;;17.17;;
65206;SDS011;58477;48.072;11.970;2024-03-02T04:57:25;36.10;;;17.85;;
65206;SDS011;58477;48.072;11.970;2024-03-02T04:59:50;37.85;;;17.55;;
65206;SDS011;58477;48.072;11.970;2024-03-02T05:02:16;33.15;;;15.77;;
65206;SDS011;58477;48.072;11.970;2024-03-02T05:04:41;28.98;;;16.30;;
65206;SDS011;58477;48.072;11.970;2024-03-02T05:07:08;33.72;;;17.15;;
65206;SDS011;58477;48.072;11.970;2024-03-02T05:09:33;32.05;;;16.90;;
65206;SDS011;58477;48.072;11.970;2024-03-02T05:11:58;32.75;;;16.90;;
65206;SDS011;58477;48.072;11.970;2024-03-02T05:14:43;28.02;;;14.85;;
65206;SDS011;58477;48.072;11.970;2024-03-02T05:17:08;29.00;;;15.52;;
65206;SDS011;58477;48.072;11.970;2024-03-02T05:19:33;29.45;;;15.48;;
65206;SDS011;58477;48.072;11.970;2024-03-02T05:21:59;31.63;;;16.05;;
65206;SDS011;58477;48.072;11.970;2024-03-02T05:24:24;35.20;;;17.48;;
65206;SDS011;58477;48.072;11.970;2024-03-02T05:26:52;35.60;;;17.80;;
65206;SDS011;58477;48.072;11.970;2024-03-02T05:29:18;35.78;;;17.38;;
65206;SDS011;58477;48.072;11.970;2024-03-02T05:31:43;33.05;;;16.90;;
65206;SDS011;58477;48.072;11.970;2024-03-02T05:34:09;38.45;;;15.63;;
65206;SDS011;58477;48.072;11.970;2024-03-02T05:36:35;34.33;;;17.02;;
65206;SDS011;58477;48.072;11.970;2024-03-02T05:39:00;37.00;;;18.38;;
65206;SDS011;58477;48.072;11.970;2024-03-02T05:41:26;34.40;;;17.90;;
65206;SDS011;58477;48.072;11.970;2024-03-02T05:43:52;25.90;;;14.80;;
65206;SDS011;58477;48.072;11.970;2024-03-02T05:46:17;30.25;;;15.10;;
65206;SDS011;58477;48.072;11.970;2024-03-02T05:48:42;26.17;;;15.30;;
65206;SDS011;58477;48.072;11.970;2024-03-02T05:51:08;34.63;;;15.02;;
65206;SDS011;58477;48.072;11.970;2024-03-02T05:53:33;28.60;;;15.07;;
65206;SDS011;58477;48.072;11.970;2024-03-02T05:55:59;25.75;;;13.82;;
65206;SDS011;58477;48.072;11.970;2024-03-02T05:58:24;32.17;;;14.98;;
65206;SDS011;58477;48.072;11.970;2024-03-02T06:01:03;26.65;;;14.00;;
65206;SDS011;58477;48.072;11.970;2024-03-02T06:03:29;28.48;;;14.80;;
65206;SDS011;58477;48.072;11.970;2024-03-02T06:05:55;30.67;;;15.13;;
65206;SDS011;58477;48.072;11.970;2024-03-02T06:08:20;29.38;;;15.38;;
65206;SDS011;58477;48.072;11.970;2024-03-02T06:10:46;30.63;;;15.13;;
65206;SDS011;58477;48.072;11.970;2024-03-02T06:13:11;29.25;;;15.57;;
65206;SDS011;58477;48.072;11.970;2024-03-02T06:15:37;32.85;;;15.00;;
65206;SDS011;58477;48.072;11.970;2024-03-02T06:18:02;34.15;;;14.93;;
65206;SDS011;58477;48.072;11.970;2024-03-02T06:20:28;30.75;;;15.60;;
65206;SDS011;58477;48.072;11.970;2024-03-02T06:22:55;34.17;;;16.52;;
65206;SDS011;58477;48.072;11.970;2024-03-02T06:25:21;34.28;;;16.70;;
65206;SDS011;58477;48.072;11.970;2024-03-02T06:27:46;34.05;;;17.27;;
65206;SDS011;58477;48.072;11.970;2024-03-02T06:30:12;35.33;;;17.45;;
65206;SDS011;58477;48.072;11.970;2024-03-02T06:32:37;36.10;;;19.95;;
65206;SDS011;58477;48.072;11.970;2024-03-02T06:35:03;31.40;;;16.58;;
65206;SDS011;58477;48.072;11.970;2024-03-02T06:37:29;35.28;;;16.85;;
65206;SDS011;58477;48.072;11.970;2024-03-02T06:39:55;29.25;;;15.38;;
65206;SDS011;58477;48.072;11.970;2024-03-02T06:42:20;28.10;;;14.18;;
65206;SDS011;58477;48.072;11.970;2024-03-02T06:44:46;32.00;;;16.33;;
65206;SDS011;58477;48.072;11.970;2024-03-02T06:47:11;36.22;;;16.80;;
65206;SDS011;58477;48.072;11.970;2024-03-02T06:49:37;28.60;;;15.07;;
65206;SDS011;58477;48.072;11.970;2024-03-02T06:52:02;36.25;;;16.30;;
65206;SDS011;58477;48.072;11.970;2024-03-02T06:54:28;32.90;;;15.65;;
65206;SDS011;58477;48.072;11.970;2024-03-02T06:56:53;33.50;;;16.02;;
65206;SDS011;58477;48.072;11.970;2024-03-02T06:59:19;33.88;;;17.05;;
65206;SDS011;58477;48.072;11.970;2024-03-02T07:01:44;28.95;;;15.63;;
65206;SDS011;58477;48.072;11.970;2024-03-02T07:04:09;29.75;;;15.77;;
65206;SDS011;58477;48.072;11.970;2024-03-02T07:06:35;28.63;;;15.10;;
65206;SDS011;58477;48.072;11.970;2024-03-02T07:09:00;26.05;;;14.60;;
65206;SDS011;58477;48.072;11.970;2024-03-02T07:11:25;23.80;;;13.13;;
65206;SDS011;58477;48.072;11.970;2024-03-02T07:13:51;35.10;;;15.80;;
65206;SDS011;58477;48.072;11.970;2024-03-02T07:16:16;32.97;;;16.48;;
65206;SDS011;58477;48.072;11.970;2024-03-02T07:18:55;40.55;;;17.48;;
65206;SDS011;58477;48.072;11.970;2024-03-02T07:21:22;37.75;;;16.98;;
65206;SDS011;58477;48.072;11.970;2024-03-02T07:23:48;42.58;;;18.52;;
65206;SDS011;58477;48.072;11.970;2024-03-02T07:26:13;42.65;;;16.55;;
65206;SDS011;58477;48.072;11.970;2024-03-02T07:28:40;41.22;;;19.15;;
65206;SDS011;58477;48.072;11.970;2024-03-02T07:31:06;40.78;;;17.20;;
65206;SDS011;58477;48.072;11.970;2024-03-02T07:33:32;38.72;;;16.52;;
65206;SDS011;58477;48.072;11.970;2024-03-02T07:35:58;36.42;;;16.48;;
65206;SDS011;58477;48.072;11.970;2024-03-02T07:38:25;40.55;;;16.02;;
65206;SDS011;58477;48.072;11.970;2024-03-02T07:40:50;36.65;;;16.30;;
65206;SDS011;58477;48.072;11.970;2024-03-02T07:43:16;29.13;;;15.30;;
65206;SDS011;58477;48.072;11.970;2024-03-02T07:45:42;31.65;;;13.98;;
65206;SDS011;58477;48.072;11.970;2024-03-02T07:48:08;31.38;;;14.48;;
65206;SDS011;58477;48.072;11.970;2024-03-02T07:50:34;26.50;;;14.07;;
65206;SDS011;58477;48.072;11.970;2024-03-02T07:53:00;30.42;;;14.35;;
65206;SDS011;58477;48.072;11.970;2024-03-02T07:55:26;30.85;;;14.75;;
65206;SDS011;58477;48.072;11.970;2024-03-02T07:57:51;30.10;;;14.48;;
65206;SDS011;58477;48.072;11.970;2024-03-02T08:00:17;28.05;;;15.02;;
65206;SDS011;58477;48.072;11.970;2024-03-02T08:02:42;33.97;;;16.58;;
65206;SDS011;58477;48.072;11.970;2024-03-02T08:05:08;31.52;;;15.20;;
65206;SDS011;58477;48.072;11.970;2024-03-02T08:07:34;29.38;;;14.80;;
65206;SDS011;58477;48.072;11.970;2024-03-02T08:09:59;30.20;;;15.35;;
65206;SDS011;58477;48.072;11.970;2024-03-02T08:12:25;31.00;;;15.95;;
65206;SDS011;58477;48.072;11.970;2024-03-02T08:14:50;34.47;;;16.08;;
65206;SDS011;58477;48.072;11.970;2024-03-02T08:17:16;34.67;;;16.30;;
65206;SDS011;58477;48.072;11.970;2024-03-02T08:19:42;35.63;;;15.55;;
65206;SDS011;58477;48.072;11.970;2024-03-02T08:22:08;38.15;;;18.65;;
65206;SDS011;58477;48.072;11.970;2024-03-02T08:24:34;33.83;;;16.50;;
65206;SDS011;58477;48.072;11.970;2024-03-02T08:27:00;33.83;;;17.25;;
65206;SDS011;58477;48.072;11.970;2024-03-02T08:29:26;29.80;;;14.50;;
65206;SDS011;58477;48.072;11.970;2024-03-02T08:31:51;27.80;;;14.18;;
65206;SDS011;58477;48.072;11.970;2024-03-02T08:34:17;31.42;;;14.45;;
65206;SDS011;58477;48.072;11.970;2024-03-02T08:36:43;22.45;;;12.52;;
65206;SDS011;58477;48.072;11.970;2024-03-02T08:39:08;25.70;;;14.15;;
65206;SDS011;58477;48.072;11.970;2024-03-02T08:44:07;29.08;;;14.05;;
65206;SDS011;58477;48.072;11.970;2024-03-02T08:46:32;26.05;;;12.98;;
65206;SDS011;58477;48.072;11.970;2024-03-02T08:48:58;30.80;;;15.90;;
65206;SDS011;58477;48.072;11.970;2024-03-02T08:51:23;28.35;;;13.63;;
65206;SDS011;58477;48.072;11.970;2024-03-02T08:53:48;29.42;;;14.95;;
65206;SDS011;58477;48.072;11.970;2024-03-02T08:56:14;29.98;;;15.02;;
65206;SDS011;58477;48.072;11.970;2024-03-02T08:58:41;28.25;;;14.25;;
65206;SDS011;58477;48.072;11.970;2024-03-02T09:01:06;31.52;;;14.30;;
65206;SDS011;58477;48.072;11.970;2024-03-02T09:03:33;29.48;;;14.32;;
65206;SDS011;58477;48.072;11.970;2024-03-02T09:06:00;26.48;;;14.10;;
65206;SDS011;58477;48.072;11.970;2024-03-02T09:08:25;24.40;;;13.40;;
65206;SDS011;58477;48.072;11.970;2024-03-02T09:10:51;25.63;;;14.10;;
65206;SDS011;58477;48.072;11.970;2024-03-02T09:13:17;24.05;;;12.95;;
65206;SDS011;58477;48.072;11.970;2024-03-02T09:15:42;26.63;;;13.98;;
65206;SDS011;58477;48.072;11.970;2024-03-02T09:18:09;23.95;;;13.70;;
65206;SDS011;58477;48.072;11.970;2024-03-02T09:20:35;27.63;;;13.77;;
65206;SDS011;58477;48.072;11.970;2024-03-02T09:23:00;29.55;;;14.15;;
65206;SDS011;58477;48.072;11.970;2024-03-02T09:25:26;24.85;;;13.85;;
65206;SDS011;58477;48.072;11.970;2024-03-02T09:27:51;26.13;;;13.25;;
65206;SDS011;58477;48.072;11.970;2024-03-02T09:30:16;26.45;;;14.13;;
65206;SDS011;58477;48.072;11.970;2024-03-02T09:32:42;23.52;;;12.98;;
65206;SDS011;58477;48.072;11.970;2024-03-02T09:35:07;27.95;;;12.43;;
65206;SDS011;58477;48.072;11.970;2024-03-02T09:37:34;25.55;;;12.90;;
65206;SDS011;58477;48.072;11.970;2024-03-02T09:40:00;20.77;;;11.98;;
65206;SDS011;58477;48.072;11.970;2024-03-02T09:42:26;20.10;;;11.10;;
65206;SDS011;58477;48.072;11.970;2024-03-02T09:44:52;25.27;;;11.52;;
65206;SDS011;58477;48.072;11.970;2024-03-02T09:47:18;24.17;;;12.73;;
65206;SDS011;58477;48.072;11.970;2024-03-02T09:49:43;20.88;;;12.35;;
65206;SDS011;58477;48.072;11.970;2024-03-02T09:52:09;18.77;;;10.95;;
65206;SDS011;58477;48.072;11.970;2024-03-02T09:54:35;25.50;;;13.32;;
65206;SDS011;58477;48.072;11.970;2024-03-02T09:57:01;19.75;;;11.10;;
65206;SDS011;58477;48.072;11.970;2024-03-02T09:59:27;22.05;;;11.52;;
65206;SDS011;58477;48.072;11.970;2024-03-02T10:04:25;21.40;;;11.50;;
65206;SDS011;58477;48.072;11.970;2024-03-02T10:06:51;30.58;;;12.30;;
65206;SDS011;58477;48.072;11.970;2024-03-02T10:09:29;24.35;;;13.02;;
65206;SDS011;58477;48.072;11.970;2024-03-02T10:12:01;23.92;;;12.13;;
65206;SDS011;58477;48.072;11.970;2024-03-02T10:14:29;23.83;;;12.85;;
65206;SDS011;58477;48.072;11.970;2024-03-02T10:16:54;22.70;;;12.82;;
65206;SDS011;58477;48.072;11.970;2024-03-02T10:19:28;27.42;;;13.07;;
65206;SDS011;58477;48.072;11.970;2024-03-02T10:21:57;26.58;;;13.50;;
65206;SDS011;58477;48.072;11.970;2024-03-02T10:24:23;22.23;;;12.18;;
65206;SDS011;58477;48.072;11.970;2024-03-02T10:26:49;21.10;;;11.45;;
65206;SDS011;58477;48.072;11.970;2024-03-02T10:29:15;23.67;;;13.48;;
65206;SDS011;58477;48.072;11.970;2024-03-02T10:31:41;22.73;;;13.60;;
65206;SDS011;58477;48.072;11.970;2024-03-02T10:34:08;23.08;;;13.30;;
65206;SDS011;58477;48.072;11.970;2024-03-02T10:36:35;23.83;;;12.20;;
65206;SDS011;58477;48.072;11.970;2024-03-02T10:39:04;25.25;;;13.60;;
65206;SDS011;58477;48.072;11.970;2024-03-02T10:41:32;24.02;;;13.40;;
65206;SDS011;58477;48.072;11.970;2024-03-02T10:43:59;23.67;;;12.55;;
65206;SDS011;58477;48.072;11.970;2024-03-02T10:46:28;26.88;;;13.32;;
65206;SDS011;58477;48.072;11.970;2024-03-02T10:48:55;22.83;;;13.90;;
65206;SDS011;58477;48.072;11.970;2024-03-02T10:51:25;20.27;;;11.88;;
65206;SDS011;58477;48.072;11.970;2024-03-02T10:53:52;23.80;;;11.98;;
65206;SDS011;58477;48.072;11.970;2024-03-02T10:56:21;20.92;;;12.38;;
65206;SDS011;58477;48.072;11.970;2024-03-02T10:58:54;26.10;;;13.93;;
65206;SDS011;58477;48.072;11.970;2024-03-02T11:01:26;20.38;;;11.52;;
65206;SDS011;58477;48.072;11.970;2024-03-02T11:03:54;18.02;;;11.35;;
65206;SDS011;58477;48.072;11.970;2024-03-02T11:06:20;21.00;;;12.43;;
65206;SDS011;58477;48.072;11.970;2024-03-02T11:08:48;18.45;;;10.55;;
65206;SDS011;58477;48.072;11.970;2024-03-02T11:11:21;18.75;;;11.55;;
65206;SDS011;58477;48.072;11.970;2024-03-02T11:13:52;15.48;;;9.32;;
65206;SDS011;58477;48.072;11.970;2024-03-02T11:16:52;19.10;;;9.75;;
65206;SDS011;58477;48.072;11.970;2024-03-02T11:21:38;17.38;;;10.25;;
65206;SDS011;58477;48.072;11.970;2024-03-02T11:26:46;15.95;;;9.60;;
65206;SDS011;58477;48.072;11.970;2024-03-02T11:29:42;21.77;;;11.05;;
65206;SDS011;58477;48.072;11.970;2024-03-02T11:32:04;17.45;;;10.30;;
65206;SDS011;58477;48.072;11.970;2024-03-02T11:34:46;17.17;;;10.18;;
65206;SDS011;58477;48.072;11.970;2024-03-02T11:37:14;17.20;;;10.10;;
65206;SDS011;58477;48.072;11.970;2024-03-02T11:39:40;16.48;;;10.05;;
65206;SDS011;58477;48.072;11.970;2024-03-02T11:42:08;19.13;;;10.50;;
65206;SDS011;58477;48.072;11.970;2024-03-02T11:44:35;20.85;;;9.77;;
65206;SDS011;58477;48.072;11.970;2024-03-02T11:47:02;18.48;;;10.40;;
65206;SDS011;58477;48.072;11.970;2024-03-02T11:49:39;13.82;;;8.25;;
65206;SDS011;58477;48.072;11.970;2024-03-02T11:52:08;14.52;;;8.75;;
65206;SDS011;58477;48.072;11.970;2024-03-02T11:54:40;16.42;;;9.23;;
65206;SDS011;58477;48.072;11.970;2024-03-02T11:57:11;15.18;;;9.50;;
65206;SDS011;58477;48.072;11.970;2024-03-02T11:59:39;14.55;;;7.97;;
65206;SDS011;58477;48.072;11.970;2024-03-02T12:02:05;18.20;;;10.10;;
65206;SDS011;58477;48.072;11.970;2024-03-02T12:04:31;16.52;;;9.77;;
65206;SDS011;58477;48.072;11.970;2024-03-02T12:06:57;18.50;;;10.00;;
65206;SDS011;58477;48.072;11.970;2024-03-02T12:09:29;17.38;;;9.32;;
65206;SDS011;58477;48.072;11.970;2024-03-02T12:12:16;18.95;;;11.25;;
65206;SDS011;58477;48.072;11.970;2024-03-02T12:14:49;19.75;;;10.95;;
65206;SDS011;58477;48.072;11.970;2024-03-02T12:17:17;18.25;;;10.82;;
65206;SDS011;58477;48.072;11.970;2024-03-02T12:19:42;20.63;;;12.23;;
65206;SDS011;58477;48.072;11.970;2024-03-02T12:22:08;22.08;;;11.88;;
65206;SDS011;58477;48.072;11.970;2024-03-02T12:24:33;24.70;;;13.40;;
65206;SDS011;58477;48.072;11.970;2024-03-02T12:26:58;19.45;;;10.90;;
65206;SDS011;58477;48.072;11.970;2024-03-02T12:29:24;24.48;;;13.27;;
65206;SDS011;58477;48.072;11.970;2024-03-02T12:31:50;26.55;;;14.70;;
65206;SDS011;58477;48.072;11.970;2024-03-02T12:34:20;27.20;;;13.80;;
65206;SDS011;58477;48.072;11.970;2024-03-02T12:36:46;27.88;;;15.02;;
65206;SDS011;58477;48.072;11.970;2024-03-02T12:39:18;21.85;;;13.20;;
65206;SDS011;58477;48.072;11.970;2024-03-02T12:41:44;28.38;;;15.52;;
65206;SDS011;58477;48.072;11.970;2024-03-02T12:44:11;27.20;;;14.98;;
65206;SDS011;58477;48.072;11.970;2024-03-02T12:46:36;26.35;;;16.13;;
65206;SDS011;58477;48.072;11.970;2024-03-02T12:49:10;32.90;;;17.52;;
65206;SDS011;58477;48.072;11.970;2024-03-02T12:51:37;26.88;;;14.52;;
65206;SDS011;58477;48.072;11.970;2024-03-02T12:54:05;24.38;;;13.45;;
65206;SDS011;58477;48.072;11.970;2024-03-02T12:56:35;26.17;;;15.02;;
65206;SDS011;58477;48.072;11.970;2024-03-02T12:59:01;28.85;;;16.30;;
65206;SDS011;58477;48.072;11.970;2024-03-02T13:01:26;22.45;;;12.63;;
65206;SDS011;58477;48.072;11.970;2024-03-02T13:03:52;27.30;;;15.48;;
65206;SDS011;58477;48.072;11.970;2024-03-02T13:06:20;26.60;;;15.77;;
65206;SDS011;58477;48.072;11.970;2024-03-02T13:08:46;29.50;;;17.35;;
65206;SDS011;58477;48.072;11.970;2024-03-02T13:11:12;29.08;;;16.17;;
65206;SDS011;58477;48.072;11.970;2024-03-02T13:13:38;32.25;;;16.77;;
65206;SDS011;58477;48.072;11.970;2024-03-02T13:16:08;23.85;;;13.80;;
65206;SDS011;58477;48.072;11.970;2024-03-02T13:18:40;22.88;;;14.02;;
65206;SDS011;58477;48.072;11.970;2024-03-02T13:21:06;30.75;;;18.38;;
65206;SDS011;58477;48.072;11.970;2024-03-02T13:23:32;27.02;;;15.75;;
65206;SDS011;58477;48.072;11.970;2024-03-02T13:25:58;28.70;;;15.77;;
65206;SDS011;58477;48.072;11.970;2024-03-02T13:28:24;32.70;;;18.45;;
65206;SDS011;58477;48.072;11.970;2024-03-02T13:30:50;31.85;;;16.75;;
65206;SDS011;58477;48.072;11.970;2024-03-02T13:33:15;28.70;;;16.00;;
65206;SDS011;58477;48.072;11.970;2024-03-02T13:35:44;25.48;;;15.25;;
65206;SDS011;58477;48.072;11.970;2024-03-02T13:38:09;30.88;;;16.75;;
65206;SDS011;58477;48.072;11.970;2024-03-02T13:40:35;28.27;;;15.85;;
65206;SDS011;58477;48.072;11.970;2024-03-02T13:43:01;27.67;;;15.32;;
65206;SDS011;58477;48.072;11.970;2024-03-02T13:45:27;26.08;;;15.02;;
65206;SDS011;58477;48.072;11.970;2024-03-02T13:47:53;21.90;;;13.70;;
65206;SDS011;58477;48.072;11.970;2024-03-02T13:50:18;21.05;;;12.00;;
65206;SDS011;58477;48.072;11.970;2024-03-02T13:52:45;21.40;;;13.40;;
65206;SDS011;58477;48.072;11.970;2024-03-02T13:55:10;27.90;;;15.02;;
65206;SDS011;58477;48.072;11.970;2024-03-02T13:57:35;23.58;;;13.85;;
65206;SDS011;58477;48.072;11.970;2024-03-02T14:00:01;23.75;;;15.25;;
65206;SDS011;58477;48.072;11.970;2024-03-02T14:02:37;23.17;;;13.88;;
65206;SDS011;58477;48.072;11.970;2024-03-02T14:05:02;25.38;;;15.07;;
65206;SDS011;58477;48.072;11.970;2024-03-02T14:07:28;23.05;;;15.18;;
65206;SDS011;58477;48.072;11.970;2024-03-02T14:09:53;25.10;;;13.93;;
65206;SDS011;58477;48.072;11.970;2024-03-02T14:12:19;17.48;;;10.88;;
65206;SDS011;58477;48.072;11.970;2024-03-02T14:14:45;24.02;;;14.60;;
65206;SDS011;58477;48.072;11.970;2024-03-02T14:17:10;24.70;;;14.57;;
65206;SDS011;58477;48.072;11.970;2024-03-02T14:19:39;19.60;;;12.82;;
65206;SDS011;58477;48.072;11.970;2024-03-02T14:22:05;23.90;;;12.77;;
65206;SDS011;58477;48.072;11.970;2024-03-02T14:24:30;22.88;;;13.82;;